Time;durP1;ratioP1;P1;durP2;ratioP2;P2;SDS_P1;SDS_P2;PMS_P1;PMS_P2;Temp;Humidity;BMP_temperature;BMP_pressure;BME280_temperature;BME280_humidity;BME280_pressure;Samples;Min_cycle;Max_cycle;Signal;HPM_P1;HPM_P2
2023/03/09 00:01:01;;;;;;;1.10;1.00;;;22.30;52.50;;;;;;5029553;28;20559;-66
2023/03/09 00:03:29;;;;;;;1.10;1.07;;;22.30;52.60;;;;;;5030766;28;20459;-66
2023/03/09 00:06:00;;;;;;;1.70;0.83;;;22.40;52.60;;;;;;5030849;28;20478;-65
2023/03/09 00:08:29;;;;;;;3.10;1.00;;;22.40;52.50;;;;;;5030823;28;21040;-66
2023/03/09 00:10:59;;;;;;;1.23;1.13;;;22.40;52.50;;;;;;5029681;28;20538;-66
2023/03/09 00:13:27;;;;;;;1.37;1.10;;;22.40;52.50;;;;;;5030644;28;20559;-66
2023/03/09 00:15:55;;;;;;;1.10;1.00;;;22.40;52.30;;;;;;5029875;28;20456;-66
2023/03/09 00:18:24;;;;;;;2.10;1.30;;;22.40;52.40;;;;;;5029980;28;20506;-66
2023/03/09 00:20:52;;;;;;;1.23;1.13;;;22.50;52.30;;;;;;5029180;28;20532;-66
2023/03/09 00:23:20;;;;;;;2.00;1.70;;;22.40;52.40;;;;;;5030830;28;20562;-66
2023/03/09 00:25:48;;;;;;;1.10;1.00;;;22.40;52.30;;;;;;5030438;28;20868;-66
2023/03/09 00:28:18;;;;;;;1.10;1.00;;;22.40;52.30;;;;;;5029090;28;20508;-66
2023/03/09 00:30:46;;;;;;;1.30;1.20;;;22.40;52.30;;;;;;5022623;28;20618;-66
2023/03/09 00:33:14;;;;;;;1.07;1.07;;;22.40;52.40;;;;;;5027854;28;20513;-66
2023/03/09 00:35:43;;;;;;;1.60;0.90;;;22.40;52.40;;;;;;5030288;28;20447;-66
2023/03/09 00:38:11;;;;;;;1.17;1.07;;;22.40;52.50;;;;;;5030223;28;20447;-66
2023/03/09 00:40:41;;;;;;;1.33;1.23;;;22.30;52.50;;;;;;5029293;28;20503;-66
2023/03/09 00:43:10;;;;;;;1.30;1.20;;;22.30;52.70;;;;;;5030037;28;20550;-66
2023/03/09 00:45:39;;;;;;;1.37;0.90;;;22.30;52.50;;;;;;5028696;28;20563;-66
2023/03/09 00:48:08;;;;;;;0.93;0.93;;;22.30;52.50;;;;;;5023302;28;20505;-66
2023/03/09 00:50:36;;;;;;;1.40;1.30;;;22.30;52.60;;;;;;5029782;28;20516;-66
2023/03/09 00:53:04;;;;;;;0.97;0.97;;;22.30;52.60;;;;;;5027987;28;20557;-66
2023/03/09 00:55:32;;;;;;;1.17;1.07;;;22.30;52.60;;;;;;5030314;28;20507;-66
2023/03/09 00:58:01;;;;;;;1.00;0.90;;;22.20;52.60;;;;;;5029105;28;20549;-66
2023/03/09 01:00:32;;;;;;;1.93;1.20;;;22.20;52.70;;;;;;5031523;28;20470;-66
2023/03/09 01:03:04;;;;;;;1.47;1.37;;;22.20;52.70;;;;;;5014515;28;20471;-66
2023/03/09 01:05:32;;;;;;;1.33;1.23;;;22.20;52.70;;;;;;5027687;28;20483;-66
2023/03/09 01:08:00;;;;;;;1.20;1.10;;;22.20;52.70;;;;;;5029937;28;20520;-66
2023/03/09 01:10:28;;;;;;;1.10;0.97;;;22.20;52.80;;;;;;5028524;28;21008;-66
2023/03/09 01:12:57;;;;;;;1.20;1.10;;;22.20;52.90;;;;;;5028228;28;20536;-66
2023/03/09 01:15:26;;;;;;;1.70;1.20;;;22.20;52.80;;;;;;5026533;28;20516;-66
2023/03/09 01:17:54;;;;;;;1.47;0.80;;;22.20;52.90;;;;;;5029026;28;20454;-66
2023/03/09 01:20:24;;;;;;;0.83;0.83;;;22.20;52.70;;;;;;5026044;28;20514;-65
2023/03/09 01:22:52;;;;;;;1.27;1.20;;;22.20;52.80;;;;;;5028451;28;20454;-66
2023/03/09 01:25:20;;;;;;;0.93;0.83;;;22.20;52.90;;;;;;5028593;28;20479;-66
2023/03/09 01:27:48;;;;;;;1.17;1.07;;;22.20;52.80;;;;;;5021446;28;20494;-65
2023/03/09 01:30:17;;;;;;;0.90;0.90;;;22.20;52.90;;;;;;5029335;28;20546;-66
2023/03/09 01:32:46;;;;;;;0.90;0.90;;;22.20;52.70;;;;;;5029936;28;20455;-66
2023/03/09 01:35:14;;;;;;;0.90;0.90;;;22.20;52.70;;;;;;5026975;28;20459;-66
2023/03/09 01:37:44;;;;;;;0.90;0.90;;;22.20;52.80;;;;;;5026634;28;20996;-66
2023/03/09 01:40:17;;;;;;;0.80;0.80;;;22.20;52.90;;;;;;5027834;28;20479;-65
2023/03/09 01:42:54;;;;;;;0.80;0.70;;;22.20;53.10;;;;;;5016490;28;20458;-65
2023/03/09 01:46:00;;;;;;;1.13;0.50;;;22.20;53.10;;;;;;5015120;28;20474;-65
2023/03/09 01:48:28;;;;;;;0.90;0.87;;;22.30;52.90;;;;;;5034466;28;20479;-66
2023/03/09 01:50:57;;;;;;;1.07;0.90;;;22.20;52.90;;;;;;5025957;28;20888;-66
2023/03/09 01:53:26;;;;;;;0.93;0.93;;;22.20;52.90;;;;;;5031077;28;20462;-65
2023/03/09 01:55:56;;;;;;;1.33;0.70;;;22.20;52.90;;;;;;5032386;28;20493;-65
2023/03/09 01:58:29;;;;;;;1.43;0.80;;;22.20;52.80;;;;;;5029751;28;20447;-66
2023/03/09 02:00:59;;;;;;;3.00;0.90;;;22.20;52.90;;;;;;5031202;28;20467;-66
2023/03/09 02:03:30;;;;;;;2.73;0.87;;;22.20;52.80;;;;;;5039621;28;20455;-66
2023/03/09 02:06:04;;;;;;;0.77;0.70;;;22.20;52.90;;;;;;5032409;28;20454;-65
2023/03/09 02:08:34;;;;;;;1.03;0.70;;;22.20;52.80;;;;;;5032211;28;20459;-65
2023/03/09 02:11:05;;;;;;;1.27;0.70;;;22.10;52.80;;;;;;5031974;28;20959;-66
2023/03/09 02:13:38;;;;;;;2.73;0.57;;;22.20;52.80;;;;;;5032259;28;20463;-65
2023/03/09 02:16:07;;;;;;;0.50;0.50;;;22.10;52.80;;;;;;5019805;28;20456;-65
2023/03/09 02:18:36;;;;;;;0.60;0.60;;;22.10;52.70;;;;;;5031126;28;20543;-65
2023/03/09 02:21:12;;;;;;;0.80;0.60;;;22.10;52.60;;;;;;5031191;28;20558;-65
2023/03/09 02:23:48;;;;;;;0.50;0.50;;;22.10;52.70;;;;;;5023745;28;20521;-66
2023/03/09 02:26:22;;;;;;;1.10;0.50;;;22.10;52.60;;;;;;5030963;28;20445;-65
2023/03/09 02:28:53;;;;;;;2.10;0.67;;;22.10;52.50;;;;;;5031352;28;20455;-65
2023/03/09 02:31:23;;;;;;;0.77;0.77;;;22.10;52.50;;;;;;5031340;28;20490;-65
2023/03/09 02:33:51;;;;;;;0.67;0.43;;;22.10;52.40;;;;;;5029847;28;20534;-65
2023/03/09 02:36:20;;;;;;;0.60;0.60;;;22.10;52.30;;;;;;5045073;28;20465;-65
2023/03/09 02:38:50;;;;;;;0.47;0.40;;;22.10;52.30;;;;;;5029922;28;20465;-65
2023/03/09 02:41:20;;;;;;;0.40;0.30;;;22.10;52.50;;;;;;5032888;28;20475;-65
2023/03/09 02:43:53;;;;;;;0.73;0.60;;;22.10;52.50;;;;;;5031796;28;20488;-66
2023/03/09 02:46:22;;;;;;;0.60;0.40;;;22.10;52.50;;;;;;5031390;28;20884;-66
2023/03/09 02:48:50;;;;;;;2.30;0.73;;;22.10;52.50;;;;;;5030643;28;20514;-66
2023/03/09 02:51:18;;;;;;;0.40;0.40;;;22.10;52.50;;;;;;5031618;28;21302;-66
2023/03/09 02:53:47;;;;;;;0.83;0.40;;;22.10;52.50;;;;;;5031045;28;20465;-66
2023/03/09 02:56:15;;;;;;;0.40;0.40;;;22.10;52.50;;;;;;5030910;28;20467;-65
2023/03/09 02:58:43;;;;;;;1.20;0.40;;;22.10;52.40;;;;;;5030550;28;20469;-65
2023/03/09 03:01:13;;;;;;;0.40;0.40;;;22.10;52.40;;;;;;5027873;28;20478;-65
2023/03/09 03:03:41;;;;;;;0.50;0.37;;;22.10;52.20;;;;;;5031434;28;20864;-66
2023/03/09 03:06:09;;;;;;;0.90;0.50;;;22.10;52.40;;;;;;5031155;28;20569;-65
2023/03/09 03:08:37;;;;;;;0.37;0.37;;;22.10;52.40;;;;;;5030772;28;20536;-65
2023/03/09 03:11:10;;;;;;;1.13;0.87;;;22.10;52.30;;;;;;5030718;28;20948;-65
2023/03/09 03:13:41;;;;;;;0.40;0.40;;;22.10;52.20;;;;;;5031306;28;20467;-65
2023/03/09 03:16:11;;;;;;;0.60;0.40;;;22.10;52.20;;;;;;5027764;28;20959;-66
2023/03/09 03:18:40;;;;;;;0.40;0.30;;;22.10;52.30;;;;;;5027130;28;20506;-66
2023/03/09 03:21:09;;;;;;;0.50;0.50;;;22.10;52.30;;;;;;5030182;28;20598;-65
2023/03/09 03:23:40;;;;;;;0.30;0.30;;;22.10;52.30;;;;;;5030399;28;20458;-66
2023/03/09 03:26:10;;;;;;;0.40;0.40;;;22.10;52.20;;;;;;5028761;28;20465;-66
2023/03/09 03:28:43;;;;;;;0.30;0.30;;;22.10;52.20;;;;;;5028964;28;20455;-66
2023/03/09 03:31:19;;;;;;;0.40;0.40;;;22.10;52.20;;;;;;5028941;28;20500;-66
2023/03/09 03:33:50;;;;;;;0.47;0.37;;;22.10;52.10;;;;;;5027533;28;20467;-66
2023/03/09 03:36:19;;;;;;;1.10;0.40;;;22.10;52.10;;;;;;5030239;28;20469;-66
2023/03/09 03:38:48;;;;;;;0.30;0.30;;;22.10;52.20;;;;;;5023612;28;20506;-66
2023/03/09 03:41:17;;;;;;;0.80;0.40;;;22.10;52.10;;;;;;5030338;28;20570;-65
2023/03/09 03:43:49;;;;;;;0.80;0.50;;;22.10;52.20;;;;;;5026445;28;20565;-65
2023/03/09 03:46:17;;;;;;;0.63;0.40;;;22.10;52.20;;;;;;5031596;28;20593;-65
2023/03/09 03:48:46;;;;;;;0.50;0.50;;;22.10;52.20;;;;;;5028391;28;20465;-65
2023/03/09 03:51:18;;;;;;;0.47;0.40;;;22.10;52.20;;;;;;5029084;28;20467;-65
2023/03/09 03:53:49;;;;;;;0.60;0.50;;;22.10;52.10;;;;;;5029862;28;20463;-66
2023/03/09 03:56:17;;;;;;;0.60;0.40;;;22.10;52.10;;;;;;5029730;28;20463;-66
2023/03/09 03:58:48;;;;;;;0.83;0.67;;;22.10;52.10;;;;;;5027920;28;20491;-66
2023/03/09 04:01:18;;;;;;;0.37;0.33;;;22.10;52.10;;;;;;5027890;28;20481;-65
2023/03/09 04:03:50;;;;;;;0.50;0.50;;;22.10;52.00;;;;;;5029196;28;20467;-65
2023/03/09 04:06:21;;;;;;;0.70;0.50;;;22.10;52.10;;;;;;5029827;28;20462;-65
2023/03/09 04:08:49;;;;;;;0.40;0.30;;;22.10;52.00;;;;;;5027225;28;20525;-66
2023/03/09 04:11:17;;;;;;;0.50;0.43;;;22.10;52.10;;;;;;5042078;28;20455;-65
2023/03/09 04:13:49;;;;;;;0.73;0.43;;;22.10;51.90;;;;;;5029498;28;20474;-66
2023/03/09 04:16:18;;;;;;;0.60;0.50;;;22.10;52.10;;;;;;5028661;28;20462;-66
2023/03/09 04:18:47;;;;;;;0.50;0.40;;;22.10;52.10;;;;;;5028285;28;20462;-66
2023/03/09 04:21:17;;;;;;;0.30;0.30;;;22.10;52.20;;;;;;5028562;28;20479;-66
2023/03/09 04:23:50;;;;;;;0.50;0.40;;;22.10;52.20;;;;;;5029011;28;20455;-66
2023/03/09 04:26:18;;;;;;;0.87;0.40;;;22.10;52.10;;;;;;5029549;28;20550;-66
2023/03/09 04:29:13;;;;;;;0.50;0.40;;;22.10;52.20;;;;;;5029807;28;20459;-66
2023/03/09 04:31:41;;;;;;;0.40;0.30;;;22.10;52.20;;;;;;5029279;28;20497;-66
2023/03/09 04:34:10;;;;;;;0.70;0.43;;;22.10;52.20;;;;;;5015492;28;20463;-66
2023/03/09 04:36:41;;;;;;;0.80;0.60;;;22.00;52.30;;;;;;5027520;28;20470;-66
2023/03/09 04:39:11;;;;;;;3.17;0.40;;;22.10;52.20;;;;;;5012988;28;20556;-65
2023/03/09 04:41:40;;;;;;;0.50;0.50;;;22.10;52.20;;;;;;5023211;28;20497;-65
2023/03/09 04:44:11;;;;;;;0.40;0.40;;;22.10;52.10;;;;;;5027973;28;20463;-66
2023/03/09 04:46:40;;;;;;;0.90;0.57;;;22.10;52.10;;;;;;5028441;28;20467;-65
2023/03/09 04:49:11;;;;;;;0.67;0.40;;;22.10;52.20;;;;;;5028774;28;20461;-66
2023/03/09 04:51:41;;;;;;;0.40;0.40;;;22.10;52.10;;;;;;5029194;28;20469;-65
2023/03/09 04:54:11;;;;;;;0.63;0.50;;;22.00;52.20;;;;;;5029564;28;20552;-65
2023/03/09 04:56:39;;;;;;;0.53;0.47;;;22.00;52.10;;;;;;5029397;28;20455;-65
2023/03/09 04:59:14;;;;;;;0.30;0.30;;;22.00;52.20;;;;;;5025809;28;20549;-66
2023/03/09 05:01:44;;;;;;;0.57;0.47;;;22.00;52.20;;;;;;5028147;28;21028;-66
2023/03/09 05:04:17;;;;;;;0.40;0.40;;;22.00;52.20;;;;;;5027626;28;20857;-65
2023/03/09 05:06:56;;;;;;;0.40;0.40;;;22.00;52.20;;;;;;5022144;28;20470;-65
2023/03/09 05:09:28;;;;;;;0.70;0.40;;;22.10;52.10;;;;;;5027579;28;20465;-65
2023/03/09 05:11:57;;;;;;;1.00;0.40;;;22.10;52.10;;;;;;5028822;28;20963;-66
2023/03/09 05:14:25;;;;;;;0.73;0.50;;;22.10;52.10;;;;;;5029678;28;20501;-65
2023/03/09 05:16:53;;;;;;;0.60;0.37;;;22.10;52.10;;;;;;5019186;28;20468;-66
2023/03/09 05:19:23;;;;;;;1.10;0.60;;;22.10;52.10;;;;;;5030227;28;20469;-65
2023/03/09 05:21:56;;;;;;;0.60;0.40;;;22.10;52.10;;;;;;5023112;28;20520;-65
2023/03/09 05:24:24;;;;;;;0.60;0.60;;;22.10;52.10;;;;;;5018591;28;20462;-66
2023/03/09 05:26:54;;;;;;;1.30;0.50;;;22.10;52.10;;;;;;5040620;28;20549;-65
2023/03/09 05:29:25;;;;;;;0.50;0.50;;;22.00;52.10;;;;;;5012809;28;20460;-65
2023/03/09 05:31:55;;;;;;;1.43;0.60;;;22.00;52.10;;;;;;5029068;28;20465;-66
2023/03/09 05:34:23;;;;;;;0.70;0.50;;;22.00;52.00;;;;;;5033064;28;20466;-66
2023/03/09 05:36:52;;;;;;;0.50;0.50;;;22.10;52.00;;;;;;5027093;28;20481;-65
2023/03/09 05:39:24;;;;;;;0.87;0.40;;;22.10;52.00;;;;;;5029921;28;20497;-66
2023/03/09 05:41:54;;;;;;;0.60;0.47;;;22.10;52.00;;;;;;5029828;28;20512;-65
2023/03/09 05:44:29;;;;;;;0.90;0.90;;;22.10;51.90;;;;;;5026574;28;20470;-65
2023/03/09 05:46:58;;;;;;;0.40;0.40;;;22.20;51.80;;;;;;5021162;28;20518;-65
2023/03/09 05:49:27;;;;;;;1.73;1.10;;;22.20;51.70;;;;;;5022345;28;20528;-65
2023/03/09 05:51:56;;;;;;;2.83;0.70;;;22.20;51.70;;;;;;5020045;28;20475;-65
2023/03/09 05:54:24;;;;;;;1.57;0.70;;;22.20;51.70;;;;;;5017149;28;20517;-66
2023/03/09 05:56:57;;;;;;;1.23;0.70;;;22.20;51.60;;;;;;5020810;28;20474;-66
2023/03/09 05:59:26;;;;;;;2.30;1.03;;;22.20;51.60;;;;;;5028855;28;20481;-66
2023/03/09 06:01:54;;;;;;;3.63;1.23;;;22.20;51.60;;;;;;5022668;28;20636;-67
2023/03/09 06:04:26;;;;;;;1.00;0.90;;;22.20;51.50;;;;;;5018454;28;20528;-66
2023/03/09 06:06:58;;;;;;;2.60;0.87;;;22.20;51.60;;;;;;5027908;28;20569;-67
2023/03/09 06:09:33;;;;;;;1.37;0.93;;;22.20;51.60;;;;;;5024069;28;20468;-66
2023/03/09 06:12:05;;;;;;;1.17;0.60;;;22.10;51.70;;;;;;5037785;28;20562;-67
2023/03/09 06:14:34;;;;;;;1.10;0.80;;;22.10;51.70;;;;;;5027162;28;20502;-66
2023/03/09 06:17:05;;;;;;;1.80;0.67;;;22.10;51.70;;;;;;5020549;28;20521;-66
2023/03/09 06:19:34;;;;;;;1.00;0.70;;;22.10;51.80;;;;;;5015536;28;20457;-66
2023/03/09 06:22:02;;;;;;;2.70;0.70;;;22.10;51.80;;;;;;5028853;28;20549;-66
2023/03/09 06:24:32;;;;;;;1.17;0.83;;;22.10;51.90;;;;;;5014321;28;20494;-66
2023/03/09 06:27:00;;;;;;;2.50;0.93;;;22.00;51.80;;;;;;5025264;28;20521;-66
2023/03/09 06:29:36;;;;;;;1.20;0.57;;;22.10;51.80;;;;;;5024803;28;20569;-66
2023/03/09 06:32:06;;;;;;;1.57;0.90;;;22.00;51.90;;;;;;5019306;28;20462;-66
2023/03/09 06:34:37;;;;;;;0.80;0.80;;;22.10;51.80;;;;;;5017127;28;20463;-67
2023/03/09 06:37:08;;;;;;;2.77;1.10;;;22.00;51.80;;;;;;5029986;28;20875;-67
2023/03/09 06:39:36;;;;;;;0.90;0.80;;;22.00;51.90;;;;;;5027496;28;20501;-67
2023/03/09 06:42:05;;;;;;;0.80;0.73;;;22.00;51.80;;;;;;5028793;28;20452;-67
2023/03/09 06:44:51;;;;;;;3.77;1.17;;;22.10;51.90;;;;;;5037701;28;20459;-67
2023/03/09 06:47:22;;;;;;;1.80;0.90;;;22.10;51.90;;;;;;5021359;28;20478;-67
2023/03/09 06:49:57;;;;;;;1.90;1.60;;;22.10;51.90;;;;;;5029495;28;20475;-67
2023/03/09 06:52:27;;;;;;;1.63;1.20;;;22.10;51.90;;;;;;5025384;28;20470;-66
2023/03/09 06:54:56;;;;;;;1.23;0.80;;;22.10;52.20;;;;;;5035727;28;20463;-66
2023/03/09 06:57:44;;;;;;;2.20;1.30;;;22.10;52.40;;;;;;5026898;28;20464;-67
2023/03/09 07:00:15;;;;;;;1.40;1.10;;;22.10;52.40;;;;;;5022876;28;20474;-66
2023/03/09 07:02:44;;;;;;;4.27;1.30;;;22.20;52.40;;;;;;5025277;28;20471;-66
2023/03/09 07:05:13;;;;;;;2.17;1.27;;;22.20;52.30;;;;;;5027240;28;20455;-66
2023/03/09 07:07:42;;;;;;;2.00;1.30;;;22.20;52.50;;;;;;5037132;28;20501;-66
2023/03/09 07:10:11;;;;;;;3.00;1.50;;;22.30;52.60;;;;;;5034299;28;20528;-66
2023/03/09 07:12:40;;;;;;;2.77;1.57;;;22.30;52.70;;;;;;5019439;28;20457;-66
2023/03/09 07:15:11;;;;;;;1.60;1.37;;;22.40;52.80;;;;;;5020421;28;20461;-66
2023/03/09 07:17:40;;;;;;;3.30;2.60;;;22.40;52.80;;;;;;5018805;28;21003;-67
2023/03/09 07:20:10;;;;;;;3.80;1.20;;;22.40;52.90;;;;;;5013296;28;20820;-66
2023/03/09 07:22:38;;;;;;;5.27;1.70;;;22.40;52.90;;;;;;5025652;28;20488;-66
2023/03/09 07:25:07;;;;;;;3.47;2.33;;;22.40;52.90;;;;;;5025685;28;20449;-66
2023/03/09 07:27:36;;;;;;;5.10;1.77;;;22.40;53.10;;;;;;5016536;28;20450;-66
2023/03/09 07:30:04;;;;;;;2.03;1.50;;;22.40;53.00;;;;;;5024078;28;20491;-66
2023/03/09 07:32:33;;;;;;;2.00;1.20;;;22.40;53.00;;;;;;5021483;28;20545;-66
2023/03/09 07:35:02;;;;;;;2.83;1.40;;;22.40;52.90;;;;;;5026962;28;20463;-66
2023/03/09 07:37:30;;;;;;;3.93;1.70;;;22.40;52.90;;;;;;5028395;28;20462;-66
2023/03/09 07:39:58;;;;;;;1.60;1.13;;;22.40;52.90;;;;;;5026202;28;20574;-66
2023/03/09 07:42:27;;;;;;;7.97;1.47;;;22.40;52.80;;;;;;5028661;28;21133;-66
2023/03/09 07:45:28;;;;;;;3.03;1.10;;;22.30;52.80;;;;;;5044223;28;20916;-66
2023/03/09 07:47:56;;;;;;;3.57;1.60;;;22.30;52.70;;;;;;5029538;28;20506;-66
2023/03/09 07:50:25;;;;;;;3.80;1.20;;;22.30;52.70;;;;;;5026469;28;20455;-66
2023/03/09 07:52:55;;;;;;;2.00;0.97;;;22.30;52.60;;;;;;5029879;28;20457;-66
2023/03/09 07:55:23;;;;;;;4.30;1.00;;;22.30;52.60;;;;;;5024700;28;20547;-66
2023/03/09 07:57:51;;;;;;;2.03;1.23;;;22.30;52.60;;;;;;5024013;28;20510;-66
2023/03/09 08:00:23;;;;;;;2.00;1.03;;;22.30;52.60;;;;;;5026523;28;20452;-66
2023/03/09 08:02:51;;;;;;;1.77;1.00;;;22.30;52.60;;;;;;5022662;28;20464;-66
2023/03/09 08:05:20;;;;;;;2.20;1.13;;;22.30;52.60;;;;;;5018159;28;20469;-66
2023/03/09 08:07:50;;;;;;;2.00;0.70;;;22.30;52.50;;;;;;5018782;28;20549;-66
2023/03/09 08:10:19;;;;;;;1.20;1.10;;;22.30;52.60;;;;;;5026844;28;20451;-66
2023/03/09 08:12:49;;;;;;;2.70;1.23;;;22.30;52.50;;;;;;5026757;28;20862;-66
2023/03/09 08:15:22;;;;;;;1.53;1.20;;;22.30;52.60;;;;;;5029436;28;20474;-66
2023/03/09 08:17:50;;;;;;;2.17;1.00;;;22.20;52.60;;;;;;5027272;28;20443;-66
2023/03/09 08:20:19;;;;;;;2.20;1.17;;;22.30;52.70;;;;;;5025790;28;20517;-66
2023/03/09 08:22:47;;;;;;;1.93;0.97;;;22.30;52.70;;;;;;5024238;28;20465;-66
2023/03/09 08:25:19;;;;;;;2.10;1.80;;;22.30;52.80;;;;;;5030381;28;20946;-67
2023/03/09 08:27:47;;;;;;;1.30;1.20;;;22.30;52.80;;;;;;5028813;28;20901;-66
2023/03/09 08:30:18;;;;;;;3.23;1.20;;;22.40;52.70;;;;;;5029034;28;20494;-66
2023/03/09 08:32:47;;;;;;;1.73;0.97;;;22.40;52.70;;;;;;5017422;28;20951;-66
2023/03/09 08:35:16;;;;;;;3.13;1.10;;;22.40;52.80;;;;;;5028747;28;20458;-66
2023/03/09 08:37:45;;;;;;;1.13;0.90;;;22.50;52.80;;;;;;5031020;28;20540;-67
2023/03/09 08:40:14;;;;;;;2.73;1.07;;;22.50;52.80;;;;;;5016812;28;21022;-66
2023/03/09 08:42:44;;;;;;;1.30;0.73;;;22.50;52.80;;;;;;5027433;28;20633;-66
2023/03/09 08:45:12;;;;;;;1.17;0.90;;;22.50;52.70;;;;;;5027467;28;20585;-67
2023/03/09 08:47:41;;;;;;;1.30;0.97;;;22.50;52.70;;;;;;5027938;28;21007;-67
2023/03/09 08:50:10;;;;;;;2.10;1.47;;;22.50;52.60;;;;;;5022317;28;21045;-67
2023/03/09 08:52:40;;;;;;;2.60;1.00;;;22.50;52.70;;;;;;5028698;28;21013;-67
2023/03/09 08:55:11;;;;;;;3.70;1.13;;;22.50;52.70;;;;;;5014938;28;20467;-67
2023/03/09 08:57:39;;;;;;;4.43;0.90;;;22.50;52.70;;;;;;5030596;28;21033;-67
2023/03/09 09:00:12;;;;;;;1.23;0.93;;;22.50;52.70;;;;;;5030161;28;20457;-67
2023/03/09 09:02:41;;;;;;;3.20;0.93;;;22.50;52.70;;;;;;5028984;28;20520;-67
2023/03/09 09:05:10;;;;;;;1.03;0.70;;;22.50;52.70;;;;;;5029147;28;20570;-67
2023/03/09 09:07:40;;;;;;;2.50;1.33;;;22.50;52.70;;;;;;5030046;28;20448;-67
2023/03/09 09:10:12;;;;;;;2.70;1.50;;;22.50;52.80;;;;;;5029863;28;20450;-66
2023/03/09 09:13:04;;;;;;;3.07;1.03;;;22.50;52.90;;;;;;5030256;28;20462;-67
2023/03/09 09:15:33;;;;;;;1.73;1.10;;;22.50;53.00;;;;;;5029736;28;20535;-66
2023/03/09 09:18:01;;;;;;;0.93;0.90;;;22.50;53.00;;;;;;5029305;28;20454;-67
2023/03/09 09:20:30;;;;;;;1.30;0.77;;;22.50;53.20;;;;;;5024078;28;20550;-67
2023/03/09 09:22:58;;;;;;;0.60;0.60;;;22.50;53.20;;;;;;5016577;28;20473;-67
2023/03/09 09:25:27;;;;;;;1.90;0.93;;;22.50;53.10;;;;;;5029762;28;20475;-67
2023/03/09 09:27:55;;;;;;;0.80;0.80;;;22.50;53.20;;;;;;5030150;28;20539;-67
2023/03/09 09:30:23;;;;;;;1.90;0.80;;;22.60;53.10;;;;;;5029400;28;20836;-67
2023/03/09 09:32:53;;;;;;;2.10;0.90;;;22.60;53.10;;;;;;5015489;28;20859;-67
2023/03/09 09:35:22;;;;;;;1.27;1.17;;;22.60;53.00;;;;;;5029971;28;20490;-67
2023/03/09 09:37:51;;;;;;;2.13;0.80;;;22.60;53.00;;;;;;5030094;28;20479;-67
2023/03/09 09:40:20;;;;;;;1.03;0.77;;;22.60;53.10;;;;;;5029245;28;20520;-67
2023/03/09 09:42:49;;;;;;;1.23;0.63;;;22.60;53.00;;;;;;5030469;28;20490;-67
2023/03/09 09:45:28;;;;;;;0.80;0.60;;;22.60;52.90;;;;;;5029509;28;20482;-66
2023/03/09 09:48:01;;;;;;;4.40;0.80;;;22.60;52.90;;;;;;5030254;28;20451;-67
2023/03/09 09:50:42;;;;;;;3.03;0.80;;;22.60;52.90;;;;;;5029463;28;20450;-67
2023/03/09 09:53:18;;;;;;;1.67;0.90;;;22.60;52.80;;;;;;5029559;28;20529;-68
2023/03/09 09:55:47;;;;;;;1.10;0.77;;;22.70;52.80;;;;;;5020183;28;20547;-67
2023/03/09 09:58:29;;;;;;;1.50;0.80;;;22.70;52.80;;;;;;5029296;28;20452;-67
2023/03/09 10:01:01;;;;;;;2.03;0.90;;;22.70;52.70;;;;;;5017514;28;20455;-67
2023/03/09 10:03:34;;;;;;;1.30;0.70;;;22.70;52.70;;;;;;5029301;28;20448;-67
2023/03/09 10:06:07;;;;;;;1.23;0.70;;;22.80;52.80;;;;;;5022484;28;20502;-67
2023/03/09 10:08:38;;;;;;;0.73;0.73;;;22.80;52.80;;;;;;5030582;28;20467;-67
2023/03/09 10:11:14;;;;;;;1.10;0.70;;;22.80;52.70;;;;;;5031020;28;20460;-66
2023/03/09 10:13:46;;;;;;;0.70;0.70;;;22.80;52.60;;;;;;5033163;28;20439;-67
2023/03/09 10:16:19;;;;;;;1.20;0.77;;;22.80;52.70;;;;;;5026521;28;20637;-67
2023/03/09 10:18:54;;;;;;;3.80;1.00;;;22.90;52.80;;;;;;5032803;28;20443;-67
2023/03/09 10:21:26;;;;;;;1.10;0.70;;;22.90;52.70;;;;;;5033284;28;20450;-66
2023/03/09 10:23:57;;;;;;;1.60;0.60;;;22.90;52.60;;;;;;5033198;28;20475;-67
2023/03/09 10:26:37;;;;;;;0.60;0.60;;;22.90;52.70;;;;;;5032828;28;21265;-66
2023/03/09 10:29:13;;;;;;;1.27;0.63;;;22.90;52.70;;;;;;5032727;28;20444;-67
2023/03/09 10:31:47;;;;;;;1.43;0.60;;;22.90;52.70;;;;;;5032266;28;20517;-67
2023/03/09 10:34:19;;;;;;;0.90;0.73;;;22.90;52.70;;;;;;5022764;28;20571;-66
2023/03/09 10:36:58;;;;;;;1.67;0.77;;;22.90;52.80;;;;;;5027950;28;20499;-67
2023/03/09 10:39:28;;;;;;;1.00;0.73;;;23.00;52.80;;;;;;5027200;28;20502;-66
2023/03/09 10:41:59;;;;;;;1.00;0.70;;;23.00;52.70;;;;;;5019706;28;20551;-66
2023/03/09 10:44:29;;;;;;;1.93;0.80;;;23.00;53.00;;;;;;5026439;28;20519;-67
2023/03/09 10:46:59;;;;;;;2.20;1.00;;;23.00;53.10;;;;;;5026896;28;20452;-66
2023/03/09 10:49:32;;;;;;;1.20;0.67;;;23.10;53.10;;;;;;5025676;28;20931;-67
2023/03/09 10:52:03;;;;;;;3.07;0.70;;;23.10;53.00;;;;;;5019399;28;20861;-66
2023/03/09 10:54:36;;;;;;;0.70;0.60;;;23.10;53.20;;;;;;5019979;28;20830;-66
2023/03/09 10:57:23;;;;;;;2.13;0.90;;;23.20;53.00;;;;;;5026601;28;20488;-67
2023/03/09 11:00:02;;;;;;;1.37;0.60;;;23.30;52.90;;;;;;5026845;28;20558;-66
2023/03/09 11:02:32;;;;;;;2.73;0.90;;;23.30;53.00;;;;;;5028082;28;20460;-66
2023/03/09 11:05:14;;;;;;;1.03;0.80;;;23.40;53.00;;;;;;5026462;28;20599;-66
2023/03/09 11:07:49;;;;;;;3.50;0.60;;;23.40;52.80;;;;;;5024336;28;20506;-66
2023/03/09 11:10:29;;;;;;;0.70;0.50;;;23.40;52.80;;;;;;5019051;28;20944;-66
2023/03/09 11:12:58;;;;;;;0.90;0.80;;;23.40;52.70;;;;;;5042208;28;20581;-65
2023/03/09 11:15:30;;;;;;;1.10;0.80;;;23.50;52.60;;;;;;5029401;28;20455;-66
2023/03/09 11:18:00;;;;;;;0.50;0.50;;;23.50;52.70;;;;;;5027721;28;20522;-65
2023/03/09 11:20:32;;;;;;;0.50;0.50;;;23.60;52.50;;;;;;5028671;28;20449;-66
2023/03/09 11:23:12;;;;;;;0.90;0.90;;;23.80;52.30;;;;;;5024727;28;20503;-66
2023/03/09 11:25:57;;;;;;;1.57;0.97;;;23.90;52.00;;;;;;5021098;28;20619;-68
2023/03/09 11:28:31;;;;;;;2.70;1.10;;;24.00;52.20;;;;;;5017174;28;20861;-66
2023/03/09 11:31:00;;;;;;;1.00;0.63;;;24.10;51.90;;;;;;5016905;28;20583;-66
2023/03/09 11:33:31;;;;;;;0.70;0.43;;;24.20;51.90;;;;;;5019535;28;20534;-66
2023/03/09 11:36:01;;;;;;;0.90;0.50;;;24.20;51.60;;;;;;5028998;28;20457;-66
2023/03/09 11:38:31;;;;;;;1.20;0.70;;;24.20;51.40;;;;;;5022369;28;20930;-67
2023/03/09 11:41:08;;;;;;;1.07;0.70;;;24.10;51.50;;;;;;5027036;28;21024;-67
2023/03/09 11:43:41;;;;;;;0.57;0.50;;;24.10;51.60;;;;;;5025467;28;20489;-67
2023/03/09 11:46:14;;;;;;;2.10;0.90;;;24.10;51.60;;;;;;5018272;28;20521;-67
2023/03/09 11:48:45;;;;;;;1.27;0.57;;;24.00;51.60;;;;;;5026014;28;20451;-67
2023/03/09 11:51:20;;;;;;;1.77;1.00;;;24.10;51.70;;;;;;5026636;28;20508;-66
2023/03/09 11:53:55;;;;;;;0.50;0.40;;;24.30;51.40;;;;;;5016514;28;20467;-67
2023/03/09 11:56:28;;;;;;;0.93;0.80;;;24.40;50.90;;;;;;5023923;28;20499;-67
2023/03/09 11:59:05;;;;;;;0.50;0.50;;;24.60;50.50;;;;;;5015566;28;20461;-66
2023/03/09 12:01:38;;;;;;;0.80;0.73;;;24.70;50.30;;;;;;5027131;28;20643;-66
2023/03/09 12:04:08;;;;;;;1.03;0.70;;;24.80;50.20;;;;;;5018396;28;20465;-67
2023/03/09 12:06:50;;;;;;;0.77;0.70;;;24.80;50.60;;;;;;5020151;28;21279;-68
2023/03/09 12:09:26;;;;;;;1.33;0.60;;;24.80;50.80;;;;;;5021123;28;20454;-68
2023/03/09 12:11:58;;;;;;;1.00;0.90;;;24.60;50.60;;;;;;5027558;28;20449;-68
2023/03/09 12:14:31;;;;;;;1.23;0.77;;;24.50;50.60;;;;;;5023731;28;20553;-67
2023/03/09 12:17:04;;;;;;;1.00;0.53;;;24.40;50.70;;;;;;5018803;28;20505;-68
2023/03/09 12:19:35;;;;;;;1.17;0.60;;;24.20;50.80;;;;;;5011151;28;20872;-68
2023/03/09 12:22:08;;;;;;;0.70;0.50;;;24.10;50.90;;;;;;5020182;28;20471;-68
2023/03/09 12:24:40;;;;;;;1.27;0.60;;;24.10;51.00;;;;;;5026018;28;20488;-68
2023/03/09 12:27:18;;;;;;;0.40;0.40;;;24.00;51.10;;;;;;5015018;28;20477;-68
2023/03/09 12:29:50;;;;;;;0.80;0.60;;;23.90;51.20;;;;;;5016335;28;21001;-68
2023/03/09 12:32:36;;;;;;;1.00;0.83;;;23.80;51.20;;;;;;5012143;28;20556;-67
2023/03/09 12:35:40;;;;;;;1.23;0.60;;;23.80;51.20;;;;;;5014683;28;20449;-68
2023/03/09 12:38:26;;;;;;;0.63;0.63;;;23.70;51.40;;;;;;5018523;28;20544;-68
2023/03/09 12:40:55;;;;;;;0.50;0.50;;;23.70;51.50;;;;;;5025241;28;20450;-67
2023/03/09 12:43:52;;;;;;;0.70;0.60;;;23.60;51.60;;;;;;5015370;28;20525;-68
2023/03/09 12:46:50;;;;;;;0.60;0.60;;;23.60;51.60;;;;;;5008946;28;20780;-68
2023/03/09 12:49:21;;;;;;;1.23;0.50;;;23.60;51.60;;;;;;5024751;28;20457;-67
2023/03/09 12:52:16;;;;;;;0.80;0.73;;;23.60;51.50;;;;;;5015306;28;20461;-68
2023/03/09 12:54:56;;;;;;;0.90;0.60;;;23.60;51.70;;;;;;5024285;28;20467;-68
2023/03/09 12:57:24;;;;;;;0.73;0.60;;;23.60;51.70;;;;;;5021031;28;20475;-68
2023/03/09 12:59:53;;;;;;;0.63;0.60;;;23.60;51.70;;;;;;5029602;28;20511;-68
2023/03/09 13:02:29;;;;;;;2.83;0.60;;;23.60;51.40;;;;;;5028684;28;20446;-68
2023/03/09 13:05:28;;;;;;;0.63;0.57;;;23.60;51.80;;;;;;5028220;28;20476;-68
2023/03/09 13:08:00;;;;;;;0.87;0.80;;;23.60;51.40;;;;;;5022966;28;20503;-68
2023/03/09 13:10:33;;;;;;;0.63;0.63;;;23.60;51.70;;;;;;5027017;28;20452;-68